sensor_id;sensor_type;location;lat;lon;timestamp;P1;durP1;ratioP1;P2;durP2;ratioP2
42742;SDS011;28397;44.552;-0.848;2024-02-16T00:00:36;21.23;;;5.05;;
42742;SDS011;28397;44.552;-0.848;2024-02-16T00:03:02;30.63;;;6.53;;
42742;SDS011;28397;44.552;-0.848;2024-02-16T00:05:28;27.23;;;6.25;;
42742;SDS011;28397;44.552;-0.848;2024-02-16T00:07:53;23.77;;;5.35;;
42742;SDS011;28397;44.552;-0.848;2024-02-16T00:10:19;24.25;;;6.15;;
42742;SDS011;28397;44.552;-0.848;2024-02-16T00:12:46;26.75;;;6.15;;
42742;SDS011;28397;44.552;-0.848;2024-02-16T00:15:12;27.50;;;5.88;;
42742;SDS011;28397;44.552;-0.848;2024-02-16T00:17:38;28.48;;;6.40;;
42742;SDS011;28397;44.552;-0.848;2024-02-16T00:20:03;26.60;;;6.40;;
42742;SDS011;28397;44.552;-0.848;2024-02-16T00:22:32;25.63;;;6.25;;
42742;SDS011;28397;44.552;-0.848;2024-02-16T00:24:58;26.77;;;6.32;;
42742;SDS011;28397;44.552;-0.848;2024-02-16T00:27:24;24.90;;;6.03;;
42742;SDS011;28397;44.552;-0.848;2024-02-16T00:29:49;26.05;;;6.03;;
42742;SDS011;28397;44.552;-0.848;2024-02-16T00:32:15;27.55;;;5.72;;
42742;SDS011;28397;44.552;-0.848;2024-02-16T00:34:40;26.02;;;5.70;;
42742;SDS011;28397;44.552;-0.848;2024-02-16T00:37:06;34.03;;;6.63;;
42742;SDS011;28397;44.552;-0.848;2024-02-16T00:39:35;31.58;;;6.53;;
42742;SDS011;28397;44.552;-0.848;2024-02-16T00:42:02;30.95;;;5.97;;
42742;SDS011;28397;44.552;-0.848;2024-02-16T00:44:27;30.67;;;6.57;;
42742;SDS011;28397;44.552;-0.848;2024-02-16T00:46:53;30.77;;;6.32;;
42742;SDS011;28397;44.552;-0.848;2024-02-16T00:49:20;30.27;;;6.40;;
42742;SDS011;28397;44.552;-0.848;2024-02-16T00:51:46;32.20;;;6.40;;
42742;SDS011;28397;44.552;-0.848;2024-02-16T00:54:11;34.35;;;6.80;;
42742;SDS011;28397;44.552;-0.848;2024-02-16T00:56:37;27.58;;;6.38;;
42742;SDS011;28397;44.552;-0.848;2024-02-16T00:59:03;34.30;;;6.53;;
42742;SDS011;28397;44.552;-0.848;2024-02-16T01:01:30;33.15;;;6.88;;
42742;SDS011;28397;44.552;-0.848;2024-02-16T01:03:56;30.17;;;6.10;;
42742;SDS011;28397;44.552;-0.848;2024-02-16T01:06:21;32.20;;;7.05;;
42742;SDS011;28397;44.552;-0.848;2024-02-16T01:08:47;27.60;;;6.43;;
42742;SDS011;28397;44.552;-0.848;2024-02-16T01:11:13;30.92;;;6.60;;
42742;SDS011;28397;44.552;-0.848;2024-02-16T01:13:39;29.58;;;7.13;;
42742;SDS011;28397;44.552;-0.848;2024-02-16T01:16:05;31.48;;;6.45;;
42742;SDS011;28397;44.552;-0.848;2024-02-16T01:18:31;31.65;;;6.57;;
42742;SDS011;28397;44.552;-0.848;2024-02-16T01:20:57;27.33;;;6.05;;
42742;SDS011;28397;44.552;-0.848;2024-02-16T01:23:24;26.10;;;5.45;;
42742;SDS011;28397;44.552;-0.848;2024-02-16T01:25:49;25.83;;;5.40;;
42742;SDS011;28397;44.552;-0.848;2024-02-16T01:28:15;27.33;;;5.53;;
42742;SDS011;28397;44.552;-0.848;2024-02-16T01:30:41;27.55;;;5.82;;
42742;SDS011;28397;44.552;-0.848;2024-02-16T01:33:07;24.05;;;5.72;;
42742;SDS011;28397;44.552;-0.848;2024-02-16T01:35:33;25.40;;;6.28;;
42742;SDS011;28397;44.552;-0.848;2024-02-16T01:37:59;23.35;;;5.22;;
42742;SDS011;28397;44.552;-0.848;2024-02-16T01:40:25;28.05;;;5.68;;
42742;SDS011;28397;44.552;-0.848;2024-02-16T01:42:51;22.00;;;6.38;;
42742;SDS011;28397;44.552;-0.848;2024-02-16T01:45:20;23.67;;;4.72;;
42742;SDS011;28397;44.552;-0.848;2024-02-16T01:47:47;26.10;;;5.63;;
42742;SDS011;28397;44.552;-0.848;2024-02-16T01:50:18;22.92;;;5.55;;
42742;SDS011;28397;44.552;-0.848;2024-02-16T01:52:44;23.05;;;5.05;;
42742;SDS011;28397;44.552;-0.848;2024-02-16T01:55:12;20.80;;;5.00;;
42742;SDS011;28397;44.552;-0.848;2024-02-16T01:57:45;24.90;;;5.32;;
42742;SDS011;28397;44.552;-0.848;2024-02-16T02:00:12;21.90;;;4.78;;
42742;SDS011;28397;44.552;-0.848;2024-02-16T02:02:40;24.98;;;5.75;;
42742;SDS011;28397;44.552;-0.848;2024-02-16T02:05:08;21.90;;;5.00;;
42742;SDS011;28397;44.552;-0.848;2024-02-16T02:07:34;23.05;;;5.10;;
42742;SDS011;28397;44.552;-0.848;2024-02-16T02:10:00;22.30;;;5.88;;
42742;SDS011;28397;44.552;-0.848;2024-02-16T02:12:26;25.63;;;5.45;;
42742;SDS011;28397;44.552;-0.848;2024-02-16T02:14:51;22.33;;;4.65;;
42742;SDS011;28397;44.552;-0.848;2024-02-16T02:17:18;26.88;;;5.22;;
42742;SDS011;28397;44.552;-0.848;2024-02-16T02:19:44;27.45;;;5.07;;
42742;SDS011;28397;44.552;-0.848;2024-02-16T02:22:13;25.02;;;5.25;;
42742;SDS011;28397;44.552;-0.848;2024-02-16T02:24:40;25.00;;;6.10;;
42742;SDS011;28397;44.552;-0.848;2024-02-16T02:27:06;27.38;;;5.65;;
42742;SDS011;28397;44.552;-0.848;2024-02-16T02:29:32;27.27;;;5.88;;
42742;SDS011;28397;44.552;-0.848;2024-02-16T02:31:58;22.77;;;4.90;;
42742;SDS011;28397;44.552;-0.848;2024-02-16T02:34:24;23.83;;;5.28;;
42742;SDS011;28397;44.552;-0.848;2024-02-16T02:36:50;25.98;;;5.10;;
42742;SDS011;28397;44.552;-0.848;2024-02-16T02:39:15;22.70;;;5.75;;
42742;SDS011;28397;44.552;-0.848;2024-02-16T02:41:41;27.88;;;6.18;;
42742;SDS011;28397;44.552;-0.848;2024-02-16T02:44:07;27.77;;;5.95;;
42742;SDS011;28397;44.552;-0.848;2024-02-16T02:46:32;27.70;;;5.90;;
42742;SDS011;28397;44.552;-0.848;2024-02-16T02:48:58;34.95;;;6.57;;
42742;SDS011;28397;44.552;-0.848;2024-02-16T02:51:23;30.00;;;6.57;;
42742;SDS011;28397;44.552;-0.848;2024-02-16T02:53:49;30.85;;;6.88;;
42742;SDS011;28397;44.552;-0.848;2024-02-16T02:56:15;30.58;;;6.70;;
42742;SDS011;28397;44.552;-0.848;2024-02-16T02:58:40;31.27;;;6.70;;
42742;SDS011;28397;44.552;-0.848;2024-02-16T03:01:06;23.10;;;5.72;;
42742;SDS011;28397;44.552;-0.848;2024-02-16T03:03:33;30.88;;;6.28;;
42742;SDS011;28397;44.552;-0.848;2024-02-16T03:05:59;28.58;;;6.05;;
42742;SDS011;28397;44.552;-0.848;2024-02-16T03:08:24;29.95;;;5.90;;
42742;SDS011;28397;44.552;-0.848;2024-02-16T03:10:50;27.92;;;6.15;;
42742;SDS011;28397;44.552;-0.848;2024-02-16T03:13:16;31.35;;;6.88;;
42742;SDS011;28397;44.552;-0.848;2024-02-16T03:15:45;25.42;;;6.57;;
42742;SDS011;28397;44.552;-0.848;2024-02-16T03:18:11;28.02;;;5.97;;
42742;SDS011;28397;44.552;-0.848;2024-02-16T03:20:36;27.40;;;6.63;;
42742;SDS011;28397;44.552;-0.848;2024-02-16T03:23:02;29.17;;;6.82;;
42742;SDS011;28397;44.552;-0.848;2024-02-16T03:25:28;26.52;;;6.25;;
42742;SDS011;28397;44.552;-0.848;2024-02-16T03:27:54;23.90;;;5.38;;
42742;SDS011;28397;44.552;-0.848;2024-02-16T03:30:20;24.52;;;5.82;;
42742;SDS011;28397;44.552;-0.848;2024-02-16T03:32:50;26.23;;;6.43;;
42742;SDS011;28397;44.552;-0.848;2024-02-16T03:35:16;23.52;;;6.18;;
42742;SDS011;28397;44.552;-0.848;2024-02-16T03:37:42;27.92;;;6.30;;
42742;SDS011;28397;44.552;-0.848;2024-02-16T03:40:08;26.77;;;5.70;;
42742;SDS011;28397;44.552;-0.848;2024-02-16T03:42:35;25.70;;;6.20;;
42742;SDS011;28397;44.552;-0.848;2024-02-16T03:45:01;29.90;;;6.57;;
42742;SDS011;28397;44.552;-0.848;2024-02-16T03:47:27;24.52;;;6.15;;
42742;SDS011;28397;44.552;-0.848;2024-02-16T03:49:53;36.47;;;6.75;;
42742;SDS011;28397;44.552;-0.848;2024-02-16T03:52:19;22.50;;;5.80;;
42742;SDS011;28397;44.552;-0.848;2024-02-16T03:54:44;29.13;;;6.57;;
42742;SDS011;28397;44.552;-0.848;2024-02-16T03:57:13;27.20;;;5.85;;
42742;SDS011;28397;44.552;-0.848;2024-02-16T03:59:41;27.23;;;5.70;;
42742;SDS011;28397;44.552;-0.848;2024-02-16T04:02:11;28.73;;;5.85;;
42742;SDS011;28397;44.552;-0.848;2024-02-16T04:04:40;28.70;;;6.03;;
42742;SDS011;28397;44.552;-0.848;2024-02-16T04:07:06;31.15;;;5.70;;
42742;SDS011;28397;44.552;-0.848;2024-02-16T04:09:33;29.95;;;6.40;;
42742;SDS011;28397;44.552;-0.848;2024-02-16T04:11:59;26.27;;;6.55;;
42742;SDS011;28397;44.552;-0.848;2024-02-16T04:14:26;34.88;;;6.65;;
42742;SDS011;28397;44.552;-0.848;2024-02-16T04:16:51;30.33;;;5.82;;
42742;SDS011;28397;44.552;-0.848;2024-02-16T04:19:17;22.25;;;5.72;;
42742;SDS011;28397;44.552;-0.848;2024-02-16T04:21:43;22.33;;;5.70;;
42742;SDS011;28397;44.552;-0.848;2024-02-16T04:24:09;18.67;;;4.55;;
42742;SDS011;28397;44.552;-0.848;2024-02-16T04:26:34;26.15;;;5.75;;
42742;SDS011;28397;44.552;-0.848;2024-02-16T04:29:00;25.67;;;5.15;;
42742;SDS011;28397;44.552;-0.848;2024-02-16T04:31:27;25.95;;;5.95;;
42742;SDS011;28397;44.552;-0.848;2024-02-16T04:33:52;25.48;;;5.85;;
42742;SDS011;28397;44.552;-0.848;2024-02-16T04:36:18;25.70;;;5.45;;
42742;SDS011;28397;44.552;-0.848;2024-02-16T04:38:44;26.55;;;5.45;;
42742;SDS011;28397;44.552;-0.848;2024-02-16T04:41:09;24.35;;;5.32;;
42742;SDS011;28397;44.552;-0.848;2024-02-16T04:43:35;22.33;;;4.78;;
42742;SDS011;28397;44.552;-0.848;2024-02-16T04:46:01;23.52;;;5.32;;
42742;SDS011;28397;44.552;-0.848;2024-02-16T04:48:27;24.00;;;5.25;;
42742;SDS011;28397;44.552;-0.848;2024-02-16T04:50:54;21.95;;;4.80;;
42742;SDS011;28397;44.552;-0.848;2024-02-16T04:53:19;23.75;;;5.22;;
42742;SDS011;28397;44.552;-0.848;2024-02-16T04:55:45;25.90;;;6.00;;
42742;SDS011;28397;44.552;-0.848;2024-02-16T04:58:10;20.92;;;4.70;;
42742;SDS011;28397;44.552;-0.848;2024-02-16T05:00:39;23.08;;;5.47;;
42742;SDS011;28397;44.552;-0.848;2024-02-16T05:03:05;25.52;;;5.18;;
42742;SDS011;28397;44.552;-0.848;2024-02-16T05:05:31;25.77;;;5.75;;
42742;SDS011;28397;44.552;-0.848;2024-02-16T05:07:57;20.30;;;5.57;;
42742;SDS011;28397;44.552;-0.848;2024-02-16T05:10:23;21.30;;;5.30;;
42742;SDS011;28397;44.552;-0.848;2024-02-16T05:12:48;24.10;;;5.43;;
42742;SDS011;28397;44.552;-0.848;2024-02-16T05:15:14;26.02;;;5.75;;
42742;SDS011;28397;44.552;-0.848;2024-02-16T05:17:40;26.65;;;6.40;;
42742;SDS011;28397;44.552;-0.848;2024-02-16T05:20:10;23.33;;;5.85;;
42742;SDS011;28397;44.552;-0.848;2024-02-16T05:22:40;26.67;;;5.85;;
42742;SDS011;28397;44.552;-0.848;2024-02-16T05:25:08;24.98;;;5.60;;
42742;SDS011;28397;44.552;-0.848;2024-02-16T05:27:35;24.20;;;5.10;;
42742;SDS011;28397;44.552;-0.848;2024-02-16T05:30:00;27.90;;;5.78;;
42742;SDS011;28397;44.552;-0.848;2024-02-16T05:32:26;27.45;;;6.57;;
42742;SDS011;28397;44.552;-0.848;2024-02-16T05:34:51;25.55;;;5.53;;
42742;SDS011;28397;44.552;-0.848;2024-02-16T05:37:17;24.08;;;5.15;;
42742;SDS011;28397;44.552;-0.848;2024-02-16T05:39:45;26.27;;;5.57;;
42742;SDS011;28397;44.552;-0.848;2024-02-16T05:42:22;23.27;;;5.30;;
42742;SDS011;28397;44.552;-0.848;2024-02-16T05:44:48;24.50;;;5.35;;
42742;SDS011;28397;44.552;-0.848;2024-02-16T05:47:15;29.85;;;6.32;;
42742;SDS011;28397;44.552;-0.848;2024-02-16T05:49:41;23.25;;;5.78;;
42742;SDS011;28397;44.552;-0.848;2024-02-16T05:52:06;29.77;;;6.25;;
42742;SDS011;28397;44.552;-0.848;2024-02-16T05:54:46;28.70;;;5.68;;
42742;SDS011;28397;44.552;-0.848;2024-02-16T05:57:15;23.77;;;5.30;;
42742;SDS011;28397;44.552;-0.848;2024-02-16T05:59:41;23.92;;;5.30;;
42742;SDS011;28397;44.552;-0.848;2024-02-16T06:02:08;27.10;;;6.07;;
42742;SDS011;28397;44.552;-0.848;2024-02-16T06:04:35;24.73;;;5.28;;
42742;SDS011;28397;44.552;-0.848;2024-02-16T06:07:01;26.08;;;5.82;;
42742;SDS011;28397;44.552;-0.848;2024-02-16T06:09:27;23.25;;;5.72;;
42742;SDS011;28397;44.552;-0.848;2024-02-16T06:11:59;25.40;;;5.78;;
42742;SDS011;28397;44.552;-0.848;2024-02-16T06:14:26;23.23;;;5.38;;
42742;SDS011;28397;44.552;-0.848;2024-02-16T06:16:51;23.85;;;5.78;;
42742;SDS011;28397;44.552;-0.848;2024-02-16T06:19:17;26.55;;;5.47;;
42742;SDS011;28397;44.552;-0.848;2024-02-16T06:21:43;26.10;;;5.72;;
42742;SDS011;28397;44.552;-0.848;2024-02-16T06:24:08;23.67;;;5.88;;
42742;SDS011;28397;44.552;-0.848;2024-02-16T06:26:34;23.63;;;5.80;;
42742;SDS011;28397;44.552;-0.848;2024-02-16T06:28:59;25.02;;;5.60;;
42742;SDS011;28397;44.552;-0.848;2024-02-16T06:31:25;24.02;;;5.57;;
42742;SDS011;28397;44.552;-0.848;2024-02-16T06:33:51;26.95;;;6.25;;
42742;SDS011;28397;44.552;-0.848;2024-02-16T06:36:17;24.60;;;6.22;;
42742;SDS011;28397;44.552;-0.848;2024-02-16T06:38:42;24.58;;;6.00;;
42742;SDS011;28397;44.552;-0.848;2024-02-16T06:41:08;32.85;;;6.18;;
42742;SDS011;28397;44.552;-0.848;2024-02-16T06:43:35;24.67;;;5.93;;
42742;SDS011;28397;44.552;-0.848;2024-02-16T06:46:01;25.67;;;6.03;;
42742;SDS011;28397;44.552;-0.848;2024-02-16T06:48:26;23.02;;;5.95;;
42742;SDS011;28397;44.552;-0.848;2024-02-16T06:50:52;25.75;;;5.47;;
42742;SDS011;28397;44.552;-0.848;2024-02-16T06:53:19;27.83;;;5.65;;
42742;SDS011;28397;44.552;-0.848;2024-02-16T06:55:44;28.48;;;6.15;;
42742;SDS011;28397;44.552;-0.848;2024-02-16T06:58:10;25.60;;;5.72;;
42742;SDS011;28397;44.552;-0.848;2024-02-16T07:00:35;24.40;;;5.60;;
42742;SDS011;28397;44.552;-0.848;2024-02-16T07:03:01;22.15;;;5.65;;
42742;SDS011;28397;44.552;-0.848;2024-02-16T07:05:27;32.45;;;6.50;;
42742;SDS011;28397;44.552;-0.848;2024-02-16T07:07:53;25.38;;;5.43;;
42742;SDS011;28397;44.552;-0.848;2024-02-16T07:10:19;23.38;;;5.63;;
42742;SDS011;28397;44.552;-0.848;2024-02-16T07:12:44;22.85;;;5.40;;
42742;SDS011;28397;44.552;-0.848;2024-02-16T07:15:11;26.27;;;6.03;;
42742;SDS011;28397;44.552;-0.848;2024-02-16T07:17:37;24.90;;;5.93;;
42742;SDS011;28397;44.552;-0.848;2024-02-16T07:20:03;27.38;;;5.53;;
42742;SDS011;28397;44.552;-0.848;2024-02-16T07:22:30;23.33;;;5.68;;
42742;SDS011;28397;44.552;-0.848;2024-02-16T07:24:57;22.27;;;6.05;;
42742;SDS011;28397;44.552;-0.848;2024-02-16T07:27:25;26.35;;;6.28;;
42742;SDS011;28397;44.552;-0.848;2024-02-16T07:29:51;23.80;;;5.45;;
42742;SDS011;28397;44.552;-0.848;2024-02-16T07:32:16;23.08;;;5.28;;
42742;SDS011;28397;44.552;-0.848;2024-02-16T07:34:45;21.73;;;5.03;;
42742;SDS011;28397;44.552;-0.848;2024-02-16T07:37:12;28.55;;;6.22;;
42742;SDS011;28397;44.552;-0.848;2024-02-16T07:39:38;25.45;;;5.80;;
42742;SDS011;28397;44.552;-0.848;2024-02-16T07:42:05;28.67;;;6.45;;
42742;SDS011;28397;44.552;-0.848;2024-02-16T07:44:34;31.13;;;6.43;;
42742;SDS011;28397;44.552;-0.848;2024-02-16T07:47:00;24.90;;;5.43;;
42742;SDS011;28397;44.552;-0.848;2024-02-16T07:49:26;22.55;;;5.20;;
42742;SDS011;28397;44.552;-0.848;2024-02-16T07:51:52;27.45;;;5.10;;
42742;SDS011;28397;44.552;-0.848;2024-02-16T07:54:17;25.23;;;5.55;;
42742;SDS011;28397;44.552;-0.848;2024-02-16T07:56:43;24.60;;;5.32;;
42742;SDS011;28397;44.552;-0.848;2024-02-16T07:59:09;25.67;;;5.72;;
42742;SDS011;28397;44.552;-0.848;2024-02-16T08:01:34;21.77;;;4.93;;
42742;SDS011;28397;44.552;-0.848;2024-02-16T08:04:00;19.13;;;4.90;;
42742;SDS011;28397;44.552;-0.848;2024-02-16T08:06:26;18.23;;;4.88;;
42742;SDS011;28397;44.552;-0.848;2024-02-16T08:08:52;17.85;;;5.05;;
42742;SDS011;28397;44.552;-0.848;2024-02-16T08:11:18;21.77;;;5.68;;
42742;SDS011;28397;44.552;-0.848;2024-02-16T08:13:45;18.58;;;4.88;;
42742;SDS011;28397;44.552;-0.848;2024-02-16T08:16:11;19.58;;;5.43;;
42742;SDS011;28397;44.552;-0.848;2024-02-16T08:18:37;21.88;;;5.50;;
42742;SDS011;28397;44.552;-0.848;2024-02-16T08:21:02;25.13;;;5.55;;
42742;SDS011;28397;44.552;-0.848;2024-02-16T08:23:28;23.63;;;5.95;;
42742;SDS011;28397;44.552;-0.848;2024-02-16T08:25:55;29.80;;;5.75;;
42742;SDS011;28397;44.552;-0.848;2024-02-16T08:28:22;28.60;;;5.85;;
42742;SDS011;28397;44.552;-0.848;2024-02-16T08:30:49;29.40;;;6.20;;
42742;SDS011;28397;44.552;-0.848;2024-02-16T08:33:15;27.80;;;6.22;;
42742;SDS011;28397;44.552;-0.848;2024-02-16T08:35:41;36.60;;;6.47;;
42742;SDS011;28397;44.552;-0.848;2024-02-16T08:38:06;26.33;;;6.03;;
42742;SDS011;28397;44.552;-0.848;2024-02-16T08:40:39;29.38;;;6.28;;
42742;SDS011;28397;44.552;-0.848;2024-02-16T08:43:05;28.80;;;6.28;;
42742;SDS011;28397;44.552;-0.848;2024-02-16T08:45:32;28.15;;;5.38;;
42742;SDS011;28397;44.552;-0.848;2024-02-16T08:47:58;27.63;;;5.70;;
42742;SDS011;28397;44.552;-0.848;2024-02-16T08:50:25;30.85;;;6.53;;
42742;SDS011;28397;44.552;-0.848;2024-02-16T08:52:50;25.02;;;5.50;;
42742;SDS011;28397;44.552;-0.848;2024-02-16T08:55:16;27.88;;;6.13;;
42742;SDS011;28397;44.552;-0.848;2024-02-16T08:57:42;28.73;;;5.78;;
42742;SDS011;28397;44.552;-0.848;2024-02-16T09:00:08;26.13;;;5.88;;
42742;SDS011;28397;44.552;-0.848;2024-02-16T09:02:34;25.63;;;5.18;;
42742;SDS011;28397;44.552;-0.848;2024-02-16T09:05:00;21.10;;;4.88;;
42742;SDS011;28397;44.552;-0.848;2024-02-16T09:07:26;27.38;;;4.95;;
42742;SDS011;28397;44.552;-0.848;2024-02-16T09:09:52;21.33;;;4.80;;
42742;SDS011;28397;44.552;-0.848;2024-02-16T09:12:19;24.52;;;5.32;;
42742;SDS011;28397;44.552;-0.848;2024-02-16T09:14:44;22.83;;;5.20;;
42742;SDS011;28397;44.552;-0.848;2024-02-16T09:17:10;25.05;;;5.60;;
42742;SDS011;28397;44.552;-0.848;2024-02-16T09:19:35;26.75;;;5.57;;
42742;SDS011;28397;44.552;-0.848;2024-02-16T09:22:01;29.48;;;6.72;;
42742;SDS011;28397;44.552;-0.848;2024-02-16T09:24:27;20.83;;;5.35;;
42742;SDS011;28397;44.552;-0.848;2024-02-16T09:26:55;20.95;;;4.88;;
42742;SDS011;28397;44.552;-0.848;2024-02-16T09:29:23;20.67;;;4.07;;
42742;SDS011;28397;44.552;-0.848;2024-02-16T09:31:49;15.65;;;3.55;;
42742;SDS011;28397;44.552;-0.848;2024-02-16T09:34:15;16.15;;;3.50;;
42742;SDS011;28397;44.552;-0.848;2024-02-16T09:36:42;21.35;;;4.57;;
42742;SDS011;28397;44.552;-0.848;2024-02-16T09:39:08;18.02;;;4.28;;
42742;SDS011;28397;44.552;-0.848;2024-02-16T09:41:34;23.40;;;4.55;;
42742;SDS011;28397;44.552;-0.848;2024-02-16T09:44:03;19.27;;;4.53;;
42742;SDS011;28397;44.552;-0.848;2024-02-16T09:46:33;17.70;;;4.63;;
42742;SDS011;28397;44.552;-0.848;2024-02-16T09:49:02;21.48;;;4.32;;
42742;SDS011;28397;44.552;-0.848;2024-02-16T09:51:29;24.00;;;4.93;;
42742;SDS011;28397;44.552;-0.848;2024-02-16T09:53:55;19.13;;;4.93;;
42742;SDS011;28397;44.552;-0.848;2024-02-16T09:56:21;19.63;;;4.70;;
42742;SDS011;28397;44.552;-0.848;2024-02-16T09:58:47;25.25;;;4.97;;
42742;SDS011;28397;44.552;-0.848;2024-02-16T10:01:19;21.48;;;4.60;;
42742;SDS011;28397;44.552;-0.848;2024-02-16T10:03:45;15.95;;;3.60;;
42742;SDS011;28397;44.552;-0.848;2024-02-16T10:06:12;10.27;;;3.17;;
42742;SDS011;28397;44.552;-0.848;2024-02-16T10:08:49;13.13;;;2.83;;
42742;SDS011;28397;44.552;-0.848;2024-02-16T10:11:16;11.23;;;2.75;;
42742;SDS011;28397;44.552;-0.848;2024-02-16T10:13:53;14.88;;;2.97;;
42742;SDS011;28397;44.552;-0.848;2024-02-16T10:16:19;15.88;;;3.05;;
42742;SDS011;28397;44.552;-0.848;2024-02-16T10:18:45;15.38;;;4.10;;
42742;SDS011;28397;44.552;-0.848;2024-02-16T10:21:10;20.70;;;3.70;;
42742;SDS011;28397;44.552;-0.848;2024-02-16T10:23:36;13.65;;;2.88;;
42742;SDS011;28397;44.552;-0.848;2024-02-16T10:26:01;11.18;;;2.90;;
42742;SDS011;28397;44.552;-0.848;2024-02-16T10:28:28;13.30;;;3.72;;
42742;SDS011;28397;44.552;-0.848;2024-02-16T10:30:58;14.77;;;3.55;;
42742;SDS011;28397;44.552;-0.848;2024-02-16T10:33:28;15.68;;;3.72;;
42742;SDS011;28397;44.552;-0.848;2024-02-16T10:35:55;17.58;;;3.70;;
42742;SDS011;28397;44.552;-0.848;2024-02-16T10:38:25;18.73;;;4.35;;
42742;SDS011;28397;44.552;-0.848;2024-02-16T10:40:52;21.58;;;4.25;;
42742;SDS011;28397;44.552;-0.848;2024-02-16T10:43:19;20.20;;;4.75;;
42742;SDS011;28397;44.552;-0.848;2024-02-16T10:45:47;19.30;;;5.00;;
42742;SDS011;28397;44.552;-0.848;2024-02-16T10:48:17;23.67;;;4.60;;
42742;SDS011;28397;44.552;-0.848;2024-02-16T10:50:43;21.15;;;4.60;;
42742;SDS011;28397;44.552;-0.848;2024-02-16T10:55:53;23.05;;;5.18;;
42742;SDS011;28397;44.552;-0.848;2024-02-16T10:58:23;27.08;;;5.32;;
42742;SDS011;28397;44.552;-0.848;2024-02-16T11:00:52;20.27;;;4.25;;
42742;SDS011;28397;44.552;-0.848;2024-02-16T11:03:23;25.90;;;5.38;;
42742;SDS011;28397;44.552;-0.848;2024-02-16T11:05:50;20.20;;;5.15;;
42742;SDS011;28397;44.552;-0.848;2024-02-16T11:08:17;24.02;;;5.07;;
42742;SDS011;28397;44.552;-0.848;2024-02-16T11:11:00;25.05;;;4.85;;
42742;SDS011;28397;44.552;-0.848;2024-02-16T11:13:32;24.45;;;5.03;;
42742;SDS011;28397;44.552;-0.848;2024-02-16T11:16:00;21.75;;;5.15;;
42742;SDS011;28397;44.552;-0.848;2024-02-16T11:18:28;23.80;;;5.22;;
42742;SDS011;28397;44.552;-0.848;2024-02-16T11:20:54;25.88;;;5.68;;
42742;SDS011;28397;44.552;-0.848;2024-02-16T11:23:38;19.42;;;5.18;;
42742;SDS011;28397;44.552;-0.848;2024-02-16T11:26:05;23.98;;;4.82;;
42742;SDS011;28397;44.552;-0.848;2024-02-16T11:28:36;20.60;;;4.55;;
42742;SDS011;28397;44.552;-0.848;2024-02-16T11:31:03;20.67;;;4.93;;
42742;SDS011;28397;44.552;-0.848;2024-02-16T11:33:30;22.52;;;4.05;;
42742;SDS011;28397;44.552;-0.848;2024-02-16T11:35:57;20.60;;;4.80;;
42742;SDS011;28397;44.552;-0.848;2024-02-16T11:38:26;19.48;;;4.68;;
42742;SDS011;28397;44.552;-0.848;2024-02-16T11:41:02;21.38;;;4.80;;
42742;SDS011;28397;44.552;-0.848;2024-02-16T11:43:30;20.70;;;4.32;;
42742;SDS011;28397;44.552;-0.848;2024-02-16T11:45:57;20.63;;;4.35;;
42742;SDS011;28397;44.552;-0.848;2024-02-16T11:48:24;17.90;;;4.40;;
42742;SDS011;28397;44.552;-0.848;2024-02-16T11:50:59;21.08;;;4.55;;
42742;SDS011;28397;44.552;-0.848;2024-02-16T11:53:27;21.75;;;4.57;;
42742;SDS011;28397;44.552;-0.848;2024-02-16T11:55:53;18.70;;;3.78;;
42742;SDS011;28397;44.552;-0.848;2024-02-16T11:58:19;19.08;;;5.20;;
42742;SDS011;28397;44.552;-0.848;2024-02-16T12:00:48;20.67;;;4.20;;
42742;SDS011;28397;44.552;-0.848;2024-02-16T12:03:18;17.00;;;4.20;;
42742;SDS011;28397;44.552;-0.848;2024-02-16T12:06:05;16.67;;;4.05;;
42742;SDS011;28397;44.552;-0.848;2024-02-16T12:08:34;14.10;;;3.35;;
42742;SDS011;28397;44.552;-0.848;2024-02-16T12:11:00;13.27;;;3.53;;
42742;SDS011;28397;44.552;-0.848;2024-02-16T12:13:27;15.93;;;3.47;;
42742;SDS011;28397;44.552;-0.848;2024-02-16T12:15:53;18.02;;;3.67;;
42742;SDS011;28397;44.552;-0.848;2024-02-16T12:18:24;17.17;;;3.83;;
42742;SDS011;28397;44.552;-0.848;2024-02-16T12:20:57;18.67;;;3.47;;
42742;SDS011;28397;44.552;-0.848;2024-02-16T12:23:36;15.90;;;3.70;;
42742;SDS011;28397;44.552;-0.848;2024-02-16T12:26:02;17.35;;;3.25;;
42742;SDS011;28397;44.552;-0.848;2024-02-16T12:28:28;15.48;;;3.50;;
42742;SDS011;28397;44.552;-0.848;2024-02-16T12:30:58;14.07;;;3.50;;
42742;SDS011;28397;44.552;-0.848;2024-02-16T12:33:24;16.13;;;4.18;;
42742;SDS011;28397;44.552;-0.848;2024-02-16T12:35:50;18.25;;;3.92;;
42742;SDS011;28397;44.552;-0.848;2024-02-16T12:38:16;13.25;;;3.38;;
42742;SDS011;28397;44.552;-0.848;2024-02-16T12:40:44;12.63;;;3.17;;
42742;SDS011;28397;44.552;-0.848;2024-02-16T12:43:16;15.55;;;3.10;;
42742;SDS011;28397;44.552;-0.848;2024-02-16T12:45:43;11.38;;;2.63;;
42742;SDS011;28397;44.552;-0.848;2024-02-16T12:48:09;10.50;;;2.85;;
42742;SDS011;28397;44.552;-0.848;2024-02-16T12:50:35;15.43;;;3.40;;
42742;SDS011;28397;44.552;-0.848;2024-02-16T12:53:04;11.25;;;2.75;;
42742;SDS011;28397;44.552;-0.848;2024-02-16T12:55:29;12.45;;;2.72;;
42742;SDS011;28397;44.552;-0.848;2024-02-16T12:57:56;11.65;;;2.97;;
42742;SDS011;28397;44.552;-0.848;2024-02-16T13:00:21;12.13;;;2.83;;
42742;SDS011;28397;44.552;-0.848;2024-02-16T13:02:47;12.32;;;2.92;;
42742;SDS011;28397;44.552;-0.848;2024-02-16T13:05:13;9.90;;;2.65;;
42742;SDS011;28397;44.552;-0.848;2024-02-16T13:07:39;10.02;;;2.63;;
42742;SDS011;28397;44.552;-0.848;2024-02-16T13:10:06;12.70;;;3.10;;
42742;SDS011;28397;44.552;-0.848;2024-02-16T13:12:33;14.00;;;3.33;;
42742;SDS011;28397;44.552;-0.848;2024-02-16T13:14:58;10.00;;;2.85;;
42742;SDS011;28397;44.552;-0.848;2024-02-16T13:17:24;10.93;;;2.60;;
42742;SDS011;28397;44.552;-0.848;2024-02-16T13:19:51;11.63;;;2.85;;
42742;SDS011;28397;44.552;-0.848;2024-02-16T13:22:17;10.32;;;2.95;;
42742;SDS011;28397;44.552;-0.848;2024-02-16T13:24:43;10.50;;;3.08;;
42742;SDS011;28397;44.552;-0.848;2024-02-16T13:27:09;12.70;;;3.00;;
42742;SDS011;28397;44.552;-0.848;2024-02-16T13:29:34;11.30;;;2.90;;
42742;SDS011;28397;44.552;-0.848;2024-02-16T13:32:00;12.15;;;2.97;;
42742;SDS011;28397;44.552;-0.848;2024-02-16T13:34:26;12.43;;;3.35;;
42742;SDS011;28397;44.552;-0.848;2024-02-16T13:36:52;13.05;;;3.22;;
42742;SDS011;28397;44.552;-0.848;2024-02-16T13:39:18;12.13;;;2.97;;
42742;SDS011;28397;44.552;-0.848;2024-02-16T13:41:44;15.13;;;3.45;;
42742;SDS011;28397;44.552;-0.848;2024-02-16T13:44:12;11.85;;;3.20;;
42742;SDS011;28397;44.552;-0.848;2024-02-16T13:46:38;12.73;;;3.10;;
42742;SDS011;28397;44.552;-0.848;2024-02-16T13:49:04;14.82;;;2.80;;
42742;SDS011;28397;44.552;-0.848;2024-02-16T13:51:30;12.57;;;2.95;;
42742;SDS011;28397;44.552;-0.848;2024-02-16T13:53:56;14.60;;;3.00;;
42742;SDS011;28397;44.552;-0.848;2024-02-16T13:56:21;12.27;;;3.00;;
42742;SDS011;28397;44.552;-0.848;2024-02-16T13:58:47;16.08;;;3.20;;
42742;SDS011;28397;44.552;-0.848;2024-02-16T14:01:13;17.10;;;3.30;;
42742;SDS011;28397;44.552;-0.848;2024-02-16T14:03:39;16.65;;;3.72;;
42742;SDS011;28397;44.552;-0.848;2024-02-16T14:06:05;15.73;;;3.72;;
42742;SDS011;28397;44.552;-0.848;2024-02-16T14:08:32;15.02;;;3.22;;
42742;SDS011;28397;44.552;-0.848;2024-02-16T14:10:58;17.80;;;4.53;;
42742;SDS011;28397;44.552;-0.848;2024-02-16T14:13:24;16.98;;;3.83;;
42742;SDS011;28397;44.552;-0.848;2024-02-16T14:15:50;14.75;;;3.40;;
42742;SDS011;28397;44.552;-0.848;2024-02-16T14:18:16;14.02;;;3.40;;
42742;SDS011;28397;44.552;-0.848;2024-02-16T14:20:41;16.25;;;3.60;;